<?xml version="1.0" encoding="UTF-8" standalone="no" ?>
<gpx xmlns="http://www.topografix.com/GPX/1/1" xmlns:xsi="http://www.w3.org/2001/XMLSchema-instance" xsi:schemaLocation="http://www.topografix.com/GPX/1/1 http://www.topografix.com/GPX/1/1/gpx.xsd" version="1.1" creator="VisuGPX - https://www.visugpx.com">
  <metadata>
    <name>Suisse-Normande-37-28</name>
  </metadata>
  <trk>
    <name><![CDATA[11340622-Lac de Rabodanges]]></name>
    <extensions>
      <line xmlns="http://www.topografix.com/GPX/gpx_style/0/2">
        <color>ff0026</color>
        <width>4</width>
      </line>
    </extensions>
    <trkseg>
      <trkpt lat="48.76391" lon="-0.24486">
        <ele>129</ele>
        <time>2020-05-23T14:00:45Z</time>
      </trkpt>
      <trkpt lat="48.7627" lon="-0.24546">
        <ele>132</ele>
        <time>2020-05-23T14:01:15Z</time>
      </trkpt>
      <trkpt lat="48.76233" lon="-0.24577">
        <ele>132</ele>
        <time>2020-05-23T14:01:25Z</time>
      </trkpt>
      <trkpt lat="48.76213" lon="-0.24639">
        <ele>134</ele>
        <time>2020-05-23T14:01:35Z</time>
      </trkpt>
      <trkpt lat="48.76084" lon="-0.24786">
        <ele>139</ele>
        <time>2020-05-23T14:02:13Z</time>
      </trkpt>
      <trkpt lat="48.75871" lon="-0.24785">
        <ele>143</ele>
        <time>2020-05-23T14:03:03Z</time>
      </trkpt>
      <trkpt lat="48.75854" lon="-0.24771">
        <ele>143</ele>
        <time>2020-05-23T14:03:07Z</time>
      </trkpt>
      <trkpt lat="48.75823" lon="-0.24769">
        <ele>146</ele>
        <time>2020-05-23T14:03:14Z</time>
      </trkpt>
      <trkpt lat="48.75775" lon="-0.24751">
        <ele>150</ele>
        <time>2020-05-23T14:03:26Z</time>
      </trkpt>
      <trkpt lat="48.75711" lon="-0.24769">
        <ele>162</ele>
        <time>2020-05-23T14:03:41Z</time>
      </trkpt>
      <trkpt lat="48.75707" lon="-0.24772">
        <ele>163</ele>
        <time>2020-05-23T14:03:42Z</time>
      </trkpt>
      <trkpt lat="48.75612" lon="-0.24749">
        <ele>175</ele>
        <time>2020-05-23T14:04:05Z</time>
      </trkpt>
      <trkpt lat="48.75522" lon="-0.24805">
        <ele>187</ele>
        <time>2020-05-23T14:04:27Z</time>
      </trkpt>
      <trkpt lat="48.75361" lon="-0.25033">
        <ele>199</ele>
        <time>2020-05-23T14:05:19Z</time>
      </trkpt>
      <trkpt lat="48.7524" lon="-0.25108">
        <ele>201</ele>
        <time>2020-05-23T14:05:49Z</time>
      </trkpt>
      <trkpt lat="48.75152" lon="-0.25188">
        <ele>203</ele>
        <time>2020-05-23T14:06:13Z</time>
      </trkpt>
      <trkpt lat="48.75104" lon="-0.25261">
        <ele>207</ele>
        <time>2020-05-23T14:06:29Z</time>
      </trkpt>
      <trkpt lat="48.75132" lon="-0.25317">
        <ele>205</ele>
        <time>2020-05-23T14:06:40Z</time>
      </trkpt>
      <trkpt lat="48.75169" lon="-0.25326">
        <ele>202</ele>
        <time>2020-05-23T14:06:49Z</time>
      </trkpt>
      <trkpt lat="48.75214" lon="-0.25477">
        <ele>204</ele>
        <time>2020-05-23T14:07:14Z</time>
      </trkpt>
      <trkpt lat="48.75192" lon="-0.25515">
        <ele>207</ele>
        <time>2020-05-23T14:07:22Z</time>
      </trkpt>
      <trkpt lat="48.75155" lon="-0.25649">
        <ele>214</ele>
        <time>2020-05-23T14:07:44Z</time>
      </trkpt>
      <trkpt lat="48.75323" lon="-0.25793">
        <ele>209</ele>
        <time>2020-05-23T14:08:29Z</time>
      </trkpt>
      <trkpt lat="48.75388" lon="-0.25935">
        <ele>210</ele>
        <time>2020-05-23T14:08:56Z</time>
      </trkpt>
      <trkpt lat="48.75484" lon="-0.26156">
        <ele>210</ele>
        <time>2020-05-23T14:09:37Z</time>
      </trkpt>
      <trkpt lat="48.75513" lon="-0.26248">
        <ele>211</ele>
        <time>2020-05-23T14:09:53Z</time>
      </trkpt>
      <trkpt lat="48.75568" lon="-0.26311">
        <ele>209</ele>
        <time>2020-05-23T14:10:09Z</time>
      </trkpt>
      <trkpt lat="48.75595" lon="-0.26405">
        <ele>211</ele>
        <time>2020-05-23T14:10:24Z</time>
      </trkpt>
      <trkpt lat="48.75607" lon="-0.26484">
        <ele>213</ele>
        <time>2020-05-23T14:10:37Z</time>
      </trkpt>
      <trkpt lat="48.75632" lon="-0.26535">
        <ele>213</ele>
        <time>2020-05-23T14:10:47Z</time>
      </trkpt>
      <trkpt lat="48.75613" lon="-0.26584">
        <ele>213</ele>
        <time>2020-05-23T14:10:55Z</time>
      </trkpt>
      <trkpt lat="48.75701" lon="-0.26629">
        <ele>216</ele>
        <time>2020-05-23T14:11:17Z</time>
      </trkpt>
      <trkpt lat="48.75709" lon="-0.26524">
        <ele>214</ele>
        <time>2020-05-23T14:11:33Z</time>
      </trkpt>
      <trkpt lat="48.75735" lon="-0.26461">
        <ele>212</ele>
        <time>2020-05-23T14:11:45Z</time>
      </trkpt>
      <trkpt lat="48.75764" lon="-0.26425">
        <ele>211</ele>
        <time>2020-05-23T14:11:54Z</time>
      </trkpt>
      <trkpt lat="48.75836" lon="-0.26495">
        <ele>213</ele>
        <time>2020-05-23T14:12:14Z</time>
      </trkpt>
      <trkpt lat="48.75901" lon="-0.26412">
        <ele>208</ele>
        <time>2020-05-23T14:12:33Z</time>
      </trkpt>
      <trkpt lat="48.75944" lon="-0.26293">
        <ele>207</ele>
        <time>2020-05-23T14:12:54Z</time>
      </trkpt>
      <trkpt lat="48.75997" lon="-0.26272">
        <ele>206</ele>
        <time>2020-05-23T14:13:07Z</time>
      </trkpt>
      <trkpt lat="48.76169" lon="-0.26248">
        <ele>199</ele>
        <time>2020-05-23T14:13:47Z</time>
      </trkpt>
      <trkpt lat="48.76237" lon="-0.26216">
        <ele>196</ele>
        <time>2020-05-23T14:14:04Z</time>
      </trkpt>
      <trkpt lat="48.76241" lon="-0.26283">
        <ele>198</ele>
        <time>2020-05-23T14:14:14Z</time>
      </trkpt>
      <trkpt lat="48.76281" lon="-0.26437">
        <ele>197</ele>
        <time>2020-05-23T14:14:40Z</time>
      </trkpt>
      <trkpt lat="48.76245" lon="-0.26576">
        <ele>189</ele>
        <time>2020-05-23T14:15:03Z</time>
      </trkpt>
      <trkpt lat="48.76265" lon="-0.26632">
        <ele>188</ele>
        <time>2020-05-23T14:15:13Z</time>
      </trkpt>
      <trkpt lat="48.76283" lon="-0.26644">
        <ele>188</ele>
        <time>2020-05-23T14:15:17Z</time>
      </trkpt>
      <trkpt lat="48.76313" lon="-0.26647">
        <ele>189</ele>
        <time>2020-05-23T14:15:24Z</time>
      </trkpt>
      <trkpt lat="48.76351" lon="-0.26629">
        <ele>188</ele>
        <time>2020-05-23T14:15:34Z</time>
      </trkpt>
      <trkpt lat="48.76413" lon="-0.26673">
        <ele>190</ele>
        <time>2020-05-23T14:15:50Z</time>
      </trkpt>
      <trkpt lat="48.76481" lon="-0.26797">
        <ele>197</ele>
        <time>2020-05-23T14:16:14Z</time>
      </trkpt>
      <trkpt lat="48.76573" lon="-0.26834">
        <ele>199</ele>
        <time>2020-05-23T14:16:37Z</time>
      </trkpt>
      <trkpt lat="48.76602" lon="-0.26895">
        <ele>200</ele>
        <time>2020-05-23T14:16:48Z</time>
      </trkpt>
      <trkpt lat="48.76589" lon="-0.26963">
        <ele>201</ele>
        <time>2020-05-23T14:16:59Z</time>
      </trkpt>
      <trkpt lat="48.76615" lon="-0.27035">
        <ele>201</ele>
        <time>2020-05-23T14:17:12Z</time>
      </trkpt>
      <trkpt lat="48.76618" lon="-0.27159">
        <ele>198</ele>
        <time>2020-05-23T14:17:31Z</time>
      </trkpt>
      <trkpt lat="48.76648" lon="-0.27347">
        <ele>195</ele>
        <time>2020-05-23T14:18:01Z</time>
      </trkpt>
      <trkpt lat="48.7667" lon="-0.27376">
        <ele>194</ele>
        <time>2020-05-23T14:18:07Z</time>
      </trkpt>
      <trkpt lat="48.76672" lon="-0.27484">
        <ele>188</ele>
        <time>2020-05-23T14:18:24Z</time>
      </trkpt>
      <trkpt lat="48.76767" lon="-0.27495">
        <ele>183</ele>
        <time>2020-05-23T14:18:46Z</time>
      </trkpt>
      <trkpt lat="48.76919" lon="-0.27456">
        <ele>179</ele>
        <time>2020-05-23T14:19:22Z</time>
      </trkpt>
      <trkpt lat="48.77007" lon="-0.27447">
        <ele>176</ele>
        <time>2020-05-23T14:19:43Z</time>
      </trkpt>
      <trkpt lat="48.77042" lon="-0.27498">
        <ele>170</ele>
        <time>2020-05-23T14:19:54Z</time>
      </trkpt>
      <trkpt lat="48.77139" lon="-0.2756">
        <ele>159</ele>
        <time>2020-05-23T14:20:19Z</time>
      </trkpt>
      <trkpt lat="48.77203" lon="-0.27558">
        <ele>157</ele>
        <time>2020-05-23T14:20:34Z</time>
      </trkpt>
      <trkpt lat="48.77276" lon="-0.27627">
        <ele>160</ele>
        <time>2020-05-23T14:20:54Z</time>
      </trkpt>
      <trkpt lat="48.77303" lon="-0.27652">
        <ele>160</ele>
        <time>2020-05-23T14:21:01Z</time>
      </trkpt>
      <trkpt lat="48.77343" lon="-0.27621">
        <ele>156</ele>
        <time>2020-05-23T14:21:12Z</time>
      </trkpt>
      <trkpt lat="48.77395" lon="-0.27704">
        <ele>156</ele>
        <time>2020-05-23T14:21:29Z</time>
      </trkpt>
      <trkpt lat="48.77423" lon="-0.27793">
        <ele>160</ele>
        <time>2020-05-23T14:21:45Z</time>
      </trkpt>
      <trkpt lat="48.77414" lon="-0.27968">
        <ele>178</ele>
        <time>2020-05-23T14:22:12Z</time>
      </trkpt>
      <trkpt lat="48.77484" lon="-0.28106">
        <ele>182</ele>
        <time>2020-05-23T14:22:38Z</time>
      </trkpt>
      <trkpt lat="48.77522" lon="-0.28229">
        <ele>183</ele>
        <time>2020-05-23T14:22:59Z</time>
      </trkpt>
      <trkpt lat="48.7761" lon="-0.28365">
        <ele>177</ele>
        <time>2020-05-23T14:23:29Z</time>
      </trkpt>
      <trkpt lat="48.77655" lon="-0.28353">
        <ele>172</ele>
        <time>2020-05-23T14:23:39Z</time>
      </trkpt>
      <trkpt lat="48.77732" lon="-0.28341">
        <ele>165</ele>
        <time>2020-05-23T14:23:57Z</time>
      </trkpt>
      <trkpt lat="48.77792" lon="-0.28298">
        <ele>158</ele>
        <time>2020-05-23T14:24:13Z</time>
      </trkpt>
      <trkpt lat="48.77827" lon="-0.28444">
        <ele>159</ele>
        <time>2020-05-23T14:24:37Z</time>
      </trkpt>
      <trkpt lat="48.77901" lon="-0.28447">
        <ele>156</ele>
        <time>2020-05-23T14:24:54Z</time>
      </trkpt>
      <trkpt lat="48.77927" lon="-0.28467">
        <ele>152</ele>
        <time>2020-05-23T14:25:01Z</time>
      </trkpt>
      <trkpt lat="48.77974" lon="-0.28481">
        <ele>144</ele>
        <time>2020-05-23T14:25:12Z</time>
      </trkpt>
      <trkpt lat="48.77994" lon="-0.28564">
        <ele>140</ele>
        <time>2020-05-23T14:25:26Z</time>
      </trkpt>
      <trkpt lat="48.78004" lon="-0.28582">
        <ele>139</ele>
        <time>2020-05-23T14:25:29Z</time>
      </trkpt>
      <trkpt lat="48.78019" lon="-0.28588">
        <ele>138</ele>
        <time>2020-05-23T14:25:33Z</time>
      </trkpt>
      <trkpt lat="48.78066" lon="-0.28556">
        <ele>132</ele>
        <time>2020-05-23T14:25:45Z</time>
      </trkpt>
      <trkpt lat="48.78092" lon="-0.28576">
        <ele>130</ele>
        <time>2020-05-23T14:25:52Z</time>
      </trkpt>
      <trkpt lat="48.78114" lon="-0.28603">
        <ele>132</ele>
        <time>2020-05-23T14:25:58Z</time>
      </trkpt>
      <trkpt lat="48.78076" lon="-0.28599">
        <ele>135</ele>
        <time>2020-05-23T14:26:07Z</time>
      </trkpt>
      <trkpt lat="48.78056" lon="-0.2861">
        <ele>138</ele>
        <time>2020-05-23T14:26:12Z</time>
      </trkpt>
      <trkpt lat="48.78042" lon="-0.28636">
        <ele>142</ele>
        <time>2020-05-23T14:26:17Z</time>
      </trkpt>
      <trkpt lat="48.78037" lon="-0.28664">
        <ele>146</ele>
        <time>2020-05-23T14:26:22Z</time>
      </trkpt>
      <trkpt lat="48.7807" lon="-0.28628">
        <ele>140</ele>
        <time>2020-05-23T14:26:31Z</time>
      </trkpt>
      <trkpt lat="48.78114" lon="-0.28636">
        <ele>138</ele>
        <time>2020-05-23T14:26:42Z</time>
      </trkpt>
      <trkpt lat="48.78164" lon="-0.28657">
        <ele>134</ele>
        <time>2020-05-23T14:26:54Z</time>
      </trkpt>
      <trkpt lat="48.7821" lon="-0.28631">
        <ele>127</ele>
        <time>2020-05-23T14:27:05Z</time>
      </trkpt>
      <trkpt lat="48.78329" lon="-0.28516">
        <ele>129</ele>
        <time>2020-05-23T14:27:38Z</time>
      </trkpt>
      <trkpt lat="48.78348" lon="-0.28319">
        <ele>146</ele>
        <time>2020-05-23T14:28:09Z</time>
      </trkpt>
      <trkpt lat="48.78377" lon="-0.28212">
        <ele>148</ele>
        <time>2020-05-23T14:28:27Z</time>
      </trkpt>
      <trkpt lat="48.78375" lon="-0.28087">
        <ele>153</ele>
        <time>2020-05-23T14:28:46Z</time>
      </trkpt>
      <trkpt lat="48.78349" lon="-0.27911">
        <ele>157</ele>
        <time>2020-05-23T14:29:14Z</time>
      </trkpt>
      <trkpt lat="48.78355" lon="-0.27819">
        <ele>159</ele>
        <time>2020-05-23T14:29:28Z</time>
      </trkpt>
      <trkpt lat="48.78384" lon="-0.2775">
        <ele>161</ele>
        <time>2020-05-23T14:29:40Z</time>
      </trkpt>
      <trkpt lat="48.78374" lon="-0.27688">
        <ele>164</ele>
        <time>2020-05-23T14:29:50Z</time>
      </trkpt>
      <trkpt lat="48.78382" lon="-0.27626">
        <ele>166</ele>
        <time>2020-05-23T14:30:00Z</time>
      </trkpt>
      <trkpt lat="48.78345" lon="-0.27614">
        <ele>166</ele>
        <time>2020-05-23T14:30:09Z</time>
      </trkpt>
      <trkpt lat="48.78289" lon="-0.27548">
        <ele>165</ele>
        <time>2020-05-23T14:30:25Z</time>
      </trkpt>
      <trkpt lat="48.78258" lon="-0.27527">
        <ele>164</ele>
        <time>2020-05-23T14:30:33Z</time>
      </trkpt>
      <trkpt lat="48.7819" lon="-0.27608">
        <ele>159</ele>
        <time>2020-05-23T14:30:53Z</time>
      </trkpt>
      <trkpt lat="48.7813" lon="-0.27565">
        <ele>157</ele>
        <time>2020-05-23T14:31:09Z</time>
      </trkpt>
      <trkpt lat="48.78097" lon="-0.27505">
        <ele>157</ele>
        <time>2020-05-23T14:31:21Z</time>
      </trkpt>
      <trkpt lat="48.78058" lon="-0.27474">
        <ele>154</ele>
        <time>2020-05-23T14:31:31Z</time>
      </trkpt>
      <trkpt lat="48.78116" lon="-0.27347">
        <ele>160</ele>
        <time>2020-05-23T14:31:55Z</time>
      </trkpt>
      <trkpt lat="48.78133" lon="-0.2727">
        <ele>162</ele>
        <time>2020-05-23T14:32:08Z</time>
      </trkpt>
      <trkpt lat="48.78143" lon="-0.27185">
        <ele>163</ele>
        <time>2020-05-23T14:32:21Z</time>
      </trkpt>
      <trkpt lat="48.78246" lon="-0.26961">
        <ele>177</ele>
        <time>2020-05-23T14:33:03Z</time>
      </trkpt>
      <trkpt lat="48.78235" lon="-0.26925">
        <ele>179</ele>
        <time>2020-05-23T14:33:09Z</time>
      </trkpt>
      <trkpt lat="48.7824" lon="-0.26899">
        <ele>181</ele>
        <time>2020-05-23T14:33:13Z</time>
      </trkpt>
      <trkpt lat="48.78365" lon="-0.26773">
        <ele>192</ele>
        <time>2020-05-23T14:33:48Z</time>
      </trkpt>
      <trkpt lat="48.78564" lon="-0.26481">
        <ele>206</ele>
        <time>2020-05-23T14:34:53Z</time>
      </trkpt>
      <trkpt lat="48.78598" lon="-0.26534">
        <ele>206</ele>
        <time>2020-05-23T14:35:04Z</time>
      </trkpt>
      <trkpt lat="48.78611" lon="-0.26502">
        <ele>207</ele>
        <time>2020-05-23T14:35:10Z</time>
      </trkpt>
      <trkpt lat="48.78727" lon="-0.26475">
        <ele>209</ele>
        <time>2020-05-23T14:35:37Z</time>
      </trkpt>
      <trkpt lat="48.78823" lon="-0.26445">
        <ele>205</ele>
        <time>2020-05-23T14:36:00Z</time>
      </trkpt>
      <trkpt lat="48.78866" lon="-0.26445">
        <ele>203</ele>
        <time>2020-05-23T14:36:10Z</time>
      </trkpt>
      <trkpt lat="48.7892" lon="-0.26474">
        <ele>200</ele>
        <time>2020-05-23T14:36:24Z</time>
      </trkpt>
      <trkpt lat="48.79015" lon="-0.26455">
        <ele>202</ele>
        <time>2020-05-23T14:36:46Z</time>
      </trkpt>
      <trkpt lat="48.79035" lon="-0.26385">
        <ele>204</ele>
        <time>2020-05-23T14:36:58Z</time>
      </trkpt>
      <trkpt lat="48.79054" lon="-0.26317">
        <ele>206</ele>
        <time>2020-05-23T14:37:09Z</time>
      </trkpt>
      <trkpt lat="48.791" lon="-0.26255">
        <ele>209</ele>
        <time>2020-05-23T14:37:24Z</time>
      </trkpt>
      <trkpt lat="48.79135" lon="-0.26218">
        <ele>209</ele>
        <time>2020-05-23T14:37:34Z</time>
      </trkpt>
      <trkpt lat="48.79482" lon="-0.25999">
        <ele>206</ele>
        <time>2020-05-23T14:39:01Z</time>
      </trkpt>
      <trkpt lat="48.79603" lon="-0.25868">
        <ele>204</ele>
        <time>2020-05-23T14:39:36Z</time>
      </trkpt>
      <trkpt lat="48.79578" lon="-0.25795">
        <ele>205</ele>
        <time>2020-05-23T14:39:49Z</time>
      </trkpt>
      <trkpt lat="48.79572" lon="-0.25752">
        <ele>206</ele>
        <time>2020-05-23T14:39:55Z</time>
      </trkpt>
      <trkpt lat="48.79557" lon="-0.25693">
        <ele>207</ele>
        <time>2020-05-23T14:40:05Z</time>
      </trkpt>
      <trkpt lat="48.79395" lon="-0.25347">
        <ele>221</ele>
        <time>2020-05-23T14:41:10Z</time>
      </trkpt>
      <trkpt lat="48.79514" lon="-0.25266">
        <ele>217</ele>
        <time>2020-05-23T14:41:41Z</time>
      </trkpt>
      <trkpt lat="48.79571" lon="-0.25212">
        <ele>213</ele>
        <time>2020-05-23T14:41:57Z</time>
      </trkpt>
      <trkpt lat="48.79643" lon="-0.25136">
        <ele>208</ele>
        <time>2020-05-23T14:42:17Z</time>
      </trkpt>
      <trkpt lat="48.79769" lon="-0.25099">
        <ele>203</ele>
        <time>2020-05-23T14:42:47Z</time>
      </trkpt>
      <trkpt lat="48.79798" lon="-0.25009">
        <ele>202</ele>
        <time>2020-05-23T14:43:02Z</time>
      </trkpt>
      <trkpt lat="48.79814" lon="-0.24943">
        <ele>202</ele>
        <time>2020-05-23T14:43:13Z</time>
      </trkpt>
      <trkpt lat="48.79845" lon="-0.24871">
        <ele>202</ele>
        <time>2020-05-23T14:43:27Z</time>
      </trkpt>
      <trkpt lat="48.79904" lon="-0.24836">
        <ele>202</ele>
        <time>2020-05-23T14:43:41Z</time>
      </trkpt>
      <trkpt lat="48.79961" lon="-0.24864">
        <ele>200</ele>
        <time>2020-05-23T14:43:55Z</time>
      </trkpt>
      <trkpt lat="48.80079" lon="-0.24867">
        <ele>198</ele>
        <time>2020-05-23T14:44:23Z</time>
      </trkpt>
      <trkpt lat="48.80199" lon="-0.24962">
        <ele>198</ele>
        <time>2020-05-23T14:44:54Z</time>
      </trkpt>
      <trkpt lat="48.80289" lon="-0.24929">
        <ele>197</ele>
        <time>2020-05-23T14:45:16Z</time>
      </trkpt>
      <trkpt lat="48.80465" lon="-0.24947">
        <ele>197</ele>
        <time>2020-05-23T14:45:57Z</time>
      </trkpt>
      <trkpt lat="48.8066" lon="-0.24921">
        <ele>204</ele>
        <time>2020-05-23T14:46:43Z</time>
      </trkpt>
      <trkpt lat="48.80673" lon="-0.24937">
        <ele>204</ele>
        <time>2020-05-23T14:46:47Z</time>
      </trkpt>
      <trkpt lat="48.80679" lon="-0.24974">
        <ele>203</ele>
        <time>2020-05-23T14:46:53Z</time>
      </trkpt>
      <trkpt lat="48.80694" lon="-0.25002">
        <ele>203</ele>
        <time>2020-05-23T14:46:58Z</time>
      </trkpt>
      <trkpt lat="48.80895" lon="-0.24869">
        <ele>212</ele>
        <time>2020-05-23T14:47:50Z</time>
      </trkpt>
      <trkpt lat="48.81217" lon="-0.24826">
        <ele>217</ele>
        <time>2020-05-23T14:49:05Z</time>
      </trkpt>
      <trkpt lat="48.81371" lon="-0.24556">
        <ele>219</ele>
        <time>2020-05-23T14:50:00Z</time>
      </trkpt>
      <trkpt lat="48.81474" lon="-0.24436">
        <ele>218</ele>
        <time>2020-05-23T14:50:30Z</time>
      </trkpt>
      <trkpt lat="48.8153" lon="-0.24302">
        <ele>217</ele>
        <time>2020-05-23T14:50:55Z</time>
      </trkpt>
      <trkpt lat="48.81569" lon="-0.24244">
        <ele>218</ele>
        <time>2020-05-23T14:51:07Z</time>
      </trkpt>
      <trkpt lat="48.81591" lon="-0.24233">
        <ele>218</ele>
        <time>2020-05-23T14:51:13Z</time>
      </trkpt>
      <trkpt lat="48.81653" lon="-0.24067">
        <ele>217</ele>
        <time>2020-05-23T14:51:42Z</time>
      </trkpt>
      <trkpt lat="48.81635" lon="-0.2401">
        <ele>218</ele>
        <time>2020-05-23T14:51:52Z</time>
      </trkpt>
      <trkpt lat="48.81628" lon="-0.23893">
        <ele>217</ele>
        <time>2020-05-23T14:52:10Z</time>
      </trkpt>
      <trkpt lat="48.81604" lon="-0.23882">
        <ele>217</ele>
        <time>2020-05-23T14:52:16Z</time>
      </trkpt>
      <trkpt lat="48.81562" lon="-0.23849">
        <ele>217</ele>
        <time>2020-05-23T14:52:27Z</time>
      </trkpt>
      <trkpt lat="48.81478" lon="-0.23708">
        <ele>216</ele>
        <time>2020-05-23T14:52:56Z</time>
      </trkpt>
      <trkpt lat="48.81342" lon="-0.23556">
        <ele>211</ele>
        <time>2020-05-23T14:53:36Z</time>
      </trkpt>
      <trkpt lat="48.81183" lon="-0.23394">
        <ele>191</ele>
        <time>2020-05-23T14:54:20Z</time>
      </trkpt>
      <trkpt lat="48.81043" lon="-0.2332">
        <ele>183</ele>
        <time>2020-05-23T14:54:55Z</time>
      </trkpt>
      <trkpt lat="48.80953" lon="-0.23245">
        <ele>180</ele>
        <time>2020-05-23T14:55:19Z</time>
      </trkpt>
      <trkpt lat="48.80879" lon="-0.23218">
        <ele>180</ele>
        <time>2020-05-23T14:55:37Z</time>
      </trkpt>
      <trkpt lat="48.80764" lon="-0.23177">
        <ele>186</ele>
        <time>2020-05-23T14:56:04Z</time>
      </trkpt>
      <trkpt lat="48.80671" lon="-0.2314">
        <ele>192</ele>
        <time>2020-05-23T14:56:27Z</time>
      </trkpt>
      <trkpt lat="48.8054" lon="-0.23087">
        <ele>198</ele>
        <time>2020-05-23T14:56:58Z</time>
      </trkpt>
      <trkpt lat="48.80351" lon="-0.23024">
        <ele>200</ele>
        <time>2020-05-23T14:57:43Z</time>
      </trkpt>
      <trkpt lat="48.80256" lon="-0.22981">
        <ele>198</ele>
        <time>2020-05-23T14:58:07Z</time>
      </trkpt>
      <trkpt lat="48.8018" lon="-0.23016">
        <ele>200</ele>
        <time>2020-05-23T14:58:25Z</time>
      </trkpt>
      <trkpt lat="48.80125" lon="-0.23059">
        <ele>204</ele>
        <time>2020-05-23T14:58:40Z</time>
      </trkpt>
      <trkpt lat="48.80063" lon="-0.23068">
        <ele>207</ele>
        <time>2020-05-23T14:58:54Z</time>
      </trkpt>
      <trkpt lat="48.79992" lon="-0.2303">
        <ele>210</ele>
        <time>2020-05-23T14:59:12Z</time>
      </trkpt>
      <trkpt lat="48.79971" lon="-0.23003">
        <ele>211</ele>
        <time>2020-05-23T14:59:18Z</time>
      </trkpt>
      <trkpt lat="48.79814" lon="-0.22468">
        <ele>214</ele>
        <time>2020-05-23T15:00:48Z</time>
      </trkpt>
      <trkpt lat="48.79716" lon="-0.22499">
        <ele>219</ele>
        <time>2020-05-23T15:01:12Z</time>
      </trkpt>
      <trkpt lat="48.79661" lon="-0.22616">
        <ele>224</ele>
        <time>2020-05-23T15:01:34Z</time>
      </trkpt>
      <trkpt lat="48.79594" lon="-0.22998">
        <ele>227</ele>
        <time>2020-05-23T15:02:35Z</time>
      </trkpt>
      <trkpt lat="48.7956" lon="-0.23122">
        <ele>229</ele>
        <time>2020-05-23T15:02:55Z</time>
      </trkpt>
      <trkpt lat="48.795" lon="-0.23242">
        <ele>229</ele>
        <time>2020-05-23T15:03:18Z</time>
      </trkpt>
      <trkpt lat="48.79213" lon="-0.23652">
        <ele>227</ele>
        <time>2020-05-23T15:04:50Z</time>
      </trkpt>
      <trkpt lat="48.78934" lon="-0.23956">
        <ele>223</ele>
        <time>2020-05-23T15:06:11Z</time>
      </trkpt>
      <trkpt lat="48.78882" lon="-0.24009">
        <ele>222</ele>
        <time>2020-05-23T15:06:25Z</time>
      </trkpt>
      <trkpt lat="48.78502" lon="-0.24206">
        <ele>215</ele>
        <time>2020-05-23T15:07:59Z</time>
      </trkpt>
      <trkpt lat="48.78398" lon="-0.24287">
        <ele>210</ele>
        <time>2020-05-23T15:08:26Z</time>
      </trkpt>
      <trkpt lat="48.78356" lon="-0.24233">
        <ele>209</ele>
        <time>2020-05-23T15:08:39Z</time>
      </trkpt>
      <trkpt lat="48.7823" lon="-0.23716">
        <ele>217</ele>
        <time>2020-05-23T15:10:04Z</time>
      </trkpt>
      <trkpt lat="48.78197" lon="-0.23577">
        <ele>217</ele>
        <time>2020-05-23T15:10:27Z</time>
      </trkpt>
      <trkpt lat="48.78178" lon="-0.23449">
        <ele>220</ele>
        <time>2020-05-23T15:10:47Z</time>
      </trkpt>
      <trkpt lat="48.7816" lon="-0.23366">
        <ele>221</ele>
        <time>2020-05-23T15:11:00Z</time>
      </trkpt>
      <trkpt lat="48.78164" lon="-0.23312">
        <ele>221</ele>
        <time>2020-05-23T15:11:09Z</time>
      </trkpt>
      <trkpt lat="48.78135" lon="-0.23196">
        <ele>221</ele>
        <time>2020-05-23T15:11:28Z</time>
      </trkpt>
      <trkpt lat="48.78038" lon="-0.23232">
        <ele>220</ele>
        <time>2020-05-23T15:11:51Z</time>
      </trkpt>
      <trkpt lat="48.77944" lon="-0.23243">
        <ele>220</ele>
        <time>2020-05-23T15:12:13Z</time>
      </trkpt>
      <trkpt lat="48.77823" lon="-0.23187">
        <ele>217</ele>
        <time>2020-05-23T15:12:43Z</time>
      </trkpt>
      <trkpt lat="48.77748" lon="-0.23185">
        <ele>216</ele>
        <time>2020-05-23T15:13:00Z</time>
      </trkpt>
      <trkpt lat="48.77737" lon="-0.23158">
        <ele>215</ele>
        <time>2020-05-23T15:13:05Z</time>
      </trkpt>
      <trkpt lat="48.77755" lon="-0.23111">
        <ele>213</ele>
        <time>2020-05-23T15:13:14Z</time>
      </trkpt>
      <trkpt lat="48.77677" lon="-0.23106">
        <ele>210</ele>
        <time>2020-05-23T15:13:32Z</time>
      </trkpt>
      <trkpt lat="48.77658" lon="-0.23023">
        <ele>206</ele>
        <time>2020-05-23T15:13:45Z</time>
      </trkpt>
      <trkpt lat="48.77633" lon="-0.22927">
        <ele>209</ele>
        <time>2020-05-23T15:14:01Z</time>
      </trkpt>
      <trkpt lat="48.77509" lon="-0.22893">
        <ele>199</ele>
        <time>2020-05-23T15:14:31Z</time>
      </trkpt>
      <trkpt lat="48.7746" lon="-0.22836">
        <ele>198</ele>
        <time>2020-05-23T15:14:45Z</time>
      </trkpt>
      <trkpt lat="48.77422" lon="-0.22781">
        <ele>197</ele>
        <time>2020-05-23T15:14:57Z</time>
      </trkpt>
      <trkpt lat="48.77386" lon="-0.22771">
        <ele>200</ele>
        <time>2020-05-23T15:15:06Z</time>
      </trkpt>
      <trkpt lat="48.77351" lon="-0.22829">
        <ele>196</ele>
        <time>2020-05-23T15:15:18Z</time>
      </trkpt>
      <trkpt lat="48.7731" lon="-0.22883">
        <ele>193</ele>
        <time>2020-05-23T15:15:31Z</time>
      </trkpt>
      <trkpt lat="48.77271" lon="-0.22932">
        <ele>192</ele>
        <time>2020-05-23T15:15:42Z</time>
      </trkpt>
      <trkpt lat="48.77231" lon="-0.23036">
        <ele>186</ele>
        <time>2020-05-23T15:16:01Z</time>
      </trkpt>
      <trkpt lat="48.77167" lon="-0.23096">
        <ele>181</ele>
        <time>2020-05-23T15:16:19Z</time>
      </trkpt>
      <trkpt lat="48.77111" lon="-0.23197">
        <ele>178</ele>
        <time>2020-05-23T15:16:39Z</time>
      </trkpt>
      <trkpt lat="48.77037" lon="-0.22961">
        <ele>191</ele>
        <time>2020-05-23T15:17:19Z</time>
      </trkpt>
      <trkpt lat="48.77005" lon="-0.22883">
        <ele>196</ele>
        <time>2020-05-23T15:17:33Z</time>
      </trkpt>
      <trkpt lat="48.76883" lon="-0.22694">
        <ele>198</ele>
        <time>2020-05-23T15:18:14Z</time>
      </trkpt>
      <trkpt lat="48.76662" lon="-0.22325">
        <ele>207</ele>
        <time>2020-05-23T15:19:31Z</time>
      </trkpt>
      <trkpt lat="48.76584" lon="-0.22244">
        <ele>206</ele>
        <time>2020-05-23T15:19:53Z</time>
      </trkpt>
      <trkpt lat="48.76589" lon="-0.2274">
        <ele>198</ele>
        <time>2020-05-23T15:21:09Z</time>
      </trkpt>
      <trkpt lat="48.76554" lon="-0.22885">
        <ele>192</ele>
        <time>2020-05-23T15:21:33Z</time>
      </trkpt>
      <trkpt lat="48.76469" lon="-0.23067">
        <ele>183</ele>
        <time>2020-05-23T15:22:07Z</time>
      </trkpt>
      <trkpt lat="48.76572" lon="-0.23154">
        <ele>183</ele>
        <time>2020-05-23T15:22:35Z</time>
      </trkpt>
      <trkpt lat="48.76541" lon="-0.23366">
        <ele>175</ele>
        <time>2020-05-23T15:23:08Z</time>
      </trkpt>
      <trkpt lat="48.76538" lon="-0.23465">
        <ele>171</ele>
        <time>2020-05-23T15:23:23Z</time>
      </trkpt>
      <trkpt lat="48.7653" lon="-0.2354">
        <ele>169</ele>
        <time>2020-05-23T15:23:35Z</time>
      </trkpt>
      <trkpt lat="48.76523" lon="-0.23693">
        <ele>164</ele>
        <time>2020-05-23T15:23:59Z</time>
      </trkpt>
      <trkpt lat="48.76529" lon="-0.23837">
        <ele>156</ele>
        <time>2020-05-23T15:24:21Z</time>
      </trkpt>
      <trkpt lat="48.76562" lon="-0.24003">
        <ele>149</ele>
        <time>2020-05-23T15:24:48Z</time>
      </trkpt>
      <trkpt lat="48.76555" lon="-0.24077">
        <ele>146</ele>
        <time>2020-05-23T15:24:59Z</time>
      </trkpt>
      <trkpt lat="48.7653" lon="-0.24124">
        <ele>145</ele>
        <time>2020-05-23T15:25:08Z</time>
      </trkpt>
      <trkpt lat="48.76512" lon="-0.24155">
        <ele>144</ele>
        <time>2020-05-23T15:25:15Z</time>
      </trkpt>
      <trkpt lat="48.7639" lon="-0.24229">
        <ele>138</ele>
        <time>2020-05-23T15:25:45Z</time>
      </trkpt>
      <trkpt lat="48.76356" lon="-0.24169">
        <ele>146</ele>
        <time>2020-05-23T15:25:58Z</time>
      </trkpt>
      <trkpt lat="48.76236" lon="-0.24204">
        <ele>143</ele>
        <time>2020-05-23T15:26:26Z</time>
      </trkpt>
      <trkpt lat="48.76254" lon="-0.24272">
        <ele>135</ele>
        <time>2020-05-23T15:26:37Z</time>
      </trkpt>
      <trkpt lat="48.76297" lon="-0.24299">
        <ele>132</ele>
        <time>2020-05-23T15:26:48Z</time>
      </trkpt>
      <trkpt lat="48.76332" lon="-0.24348">
        <ele>127</ele>
        <time>2020-05-23T15:26:59Z</time>
      </trkpt>
      <trkpt lat="48.76385" lon="-0.2438">
        <ele>127</ele>
        <time>2020-05-23T15:27:13Z</time>
      </trkpt>
      <trkpt lat="48.76391" lon="-0.24486">
        <ele>129</ele>
        <time>2020-05-23T15:27:29Z</time>
      </trkpt>
    </trkseg>
  </trk>
  <trk>
    <name><![CDATA[11341037-Putanges-Pont-Ecrépin]]></name>
    <extensions>
      <line xmlns="http://www.topografix.com/GPX/gpx_style/0/2">
        <color>002aff</color>
        <width>4</width>
      </line>
    </extensions>
    <trkseg>
      <trkpt lat="48.76389" lon="-0.2449">
        <ele>129</ele>
        <time>2020-05-23T14:44:47Z</time>
      </trkpt>
      <trkpt lat="48.76387" lon="-0.24374">
        <ele>127</ele>
        <time>2020-05-23T14:45:05Z</time>
      </trkpt>
      <trkpt lat="48.76333" lon="-0.24348">
        <ele>127</ele>
        <time>2020-05-23T14:45:18Z</time>
      </trkpt>
      <trkpt lat="48.76294" lon="-0.24299">
        <ele>132</ele>
        <time>2020-05-23T14:45:30Z</time>
      </trkpt>
      <trkpt lat="48.76259" lon="-0.2427">
        <ele>135</ele>
        <time>2020-05-23T14:45:39Z</time>
      </trkpt>
      <trkpt lat="48.76236" lon="-0.24206">
        <ele>143</ele>
        <time>2020-05-23T14:45:50Z</time>
      </trkpt>
      <trkpt lat="48.76361" lon="-0.24176">
        <ele>145</ele>
        <time>2020-05-23T14:46:20Z</time>
      </trkpt>
      <trkpt lat="48.76382" lon="-0.24231">
        <ele>138</ele>
        <time>2020-05-23T14:46:30Z</time>
      </trkpt>
      <trkpt lat="48.76504" lon="-0.24156">
        <ele>144</ele>
        <time>2020-05-23T14:47:01Z</time>
      </trkpt>
      <trkpt lat="48.76527" lon="-0.24137">
        <ele>144</ele>
        <time>2020-05-23T14:47:07Z</time>
      </trkpt>
      <trkpt lat="48.76559" lon="-0.24081">
        <ele>146</ele>
        <time>2020-05-23T14:47:18Z</time>
      </trkpt>
      <trkpt lat="48.76561" lon="-0.23994">
        <ele>150</ele>
        <time>2020-05-23T14:47:31Z</time>
      </trkpt>
      <trkpt lat="48.76553" lon="-0.23922">
        <ele>153</ele>
        <time>2020-05-23T14:47:43Z</time>
      </trkpt>
      <trkpt lat="48.76528" lon="-0.23846">
        <ele>156</ele>
        <time>2020-05-23T14:47:56Z</time>
      </trkpt>
      <trkpt lat="48.76522" lon="-0.23623">
        <ele>167</ele>
        <time>2020-05-23T14:48:30Z</time>
      </trkpt>
      <trkpt lat="48.76542" lon="-0.23442">
        <ele>172</ele>
        <time>2020-05-23T14:48:58Z</time>
      </trkpt>
      <trkpt lat="48.76544" lon="-0.23343">
        <ele>176</ele>
        <time>2020-05-23T14:49:14Z</time>
      </trkpt>
      <trkpt lat="48.76572" lon="-0.23148">
        <ele>183</ele>
        <time>2020-05-23T14:49:44Z</time>
      </trkpt>
      <trkpt lat="48.76514" lon="-0.2312">
        <ele>182</ele>
        <time>2020-05-23T14:49:59Z</time>
      </trkpt>
      <trkpt lat="48.7647" lon="-0.23075">
        <ele>183</ele>
        <time>2020-05-23T14:50:11Z</time>
      </trkpt>
      <trkpt lat="48.76564" lon="-0.22861">
        <ele>193</ele>
        <time>2020-05-23T14:50:51Z</time>
      </trkpt>
      <trkpt lat="48.76591" lon="-0.22747">
        <ele>198</ele>
        <time>2020-05-23T14:51:09Z</time>
      </trkpt>
      <trkpt lat="48.76589" lon="-0.2225">
        <ele>206</ele>
        <time>2020-05-23T14:52:26Z</time>
      </trkpt>
      <trkpt lat="48.76681" lon="-0.22341">
        <ele>207</ele>
        <time>2020-05-23T14:52:51Z</time>
      </trkpt>
      <trkpt lat="48.76874" lon="-0.22676">
        <ele>198</ele>
        <time>2020-05-23T14:54:00Z</time>
      </trkpt>
      <trkpt lat="48.76988" lon="-0.22847">
        <ele>197</ele>
        <time>2020-05-23T14:54:37Z</time>
      </trkpt>
      <trkpt lat="48.77021" lon="-0.22915">
        <ele>194</ele>
        <time>2020-05-23T14:54:50Z</time>
      </trkpt>
      <trkpt lat="48.77112" lon="-0.23196">
        <ele>178</ele>
        <time>2020-05-23T14:55:38Z</time>
      </trkpt>
      <trkpt lat="48.77171" lon="-0.2309">
        <ele>182</ele>
        <time>2020-05-23T14:56:00Z</time>
      </trkpt>
      <trkpt lat="48.77232" lon="-0.23028">
        <ele>186</ele>
        <time>2020-05-23T14:56:17Z</time>
      </trkpt>
      <trkpt lat="48.77275" lon="-0.22926">
        <ele>192</ele>
        <time>2020-05-23T14:56:36Z</time>
      </trkpt>
      <trkpt lat="48.77358" lon="-0.22836">
        <ele>195</ele>
        <time>2020-05-23T14:56:59Z</time>
      </trkpt>
      <trkpt lat="48.77384" lon="-0.22774">
        <ele>199</ele>
        <time>2020-05-23T14:57:11Z</time>
      </trkpt>
      <trkpt lat="48.77403" lon="-0.22681">
        <ele>206</ele>
        <time>2020-05-23T14:57:26Z</time>
      </trkpt>
      <trkpt lat="48.77446" lon="-0.22626">
        <ele>209</ele>
        <time>2020-05-23T14:57:39Z</time>
      </trkpt>
      <trkpt lat="48.77445" lon="-0.2257">
        <ele>212</ele>
        <time>2020-05-23T14:57:47Z</time>
      </trkpt>
      <trkpt lat="48.77452" lon="-0.22514">
        <ele>214</ele>
        <time>2020-05-23T14:57:56Z</time>
      </trkpt>
      <trkpt lat="48.77443" lon="-0.22473">
        <ele>216</ele>
        <time>2020-05-23T14:58:03Z</time>
      </trkpt>
      <trkpt lat="48.7745" lon="-0.22425">
        <ele>218</ele>
        <time>2020-05-23T14:58:10Z</time>
      </trkpt>
      <trkpt lat="48.77487" lon="-0.22232">
        <ele>224</ele>
        <time>2020-05-23T14:58:41Z</time>
      </trkpt>
      <trkpt lat="48.77514" lon="-0.22036">
        <ele>233</ele>
        <time>2020-05-23T14:59:12Z</time>
      </trkpt>
      <trkpt lat="48.7751" lon="-0.21936">
        <ele>234</ele>
        <time>2020-05-23T14:59:28Z</time>
      </trkpt>
      <trkpt lat="48.77532" lon="-0.21822">
        <ele>235</ele>
        <time>2020-05-23T14:59:46Z</time>
      </trkpt>
      <trkpt lat="48.77543" lon="-0.21748">
        <ele>236</ele>
        <time>2020-05-23T14:59:58Z</time>
      </trkpt>
      <trkpt lat="48.77522" lon="-0.21573">
        <ele>239</ele>
        <time>2020-05-23T15:00:25Z</time>
      </trkpt>
      <trkpt lat="48.77504" lon="-0.21396">
        <ele>242</ele>
        <time>2020-05-23T15:00:53Z</time>
      </trkpt>
      <trkpt lat="48.77483" lon="-0.21258">
        <ele>243</ele>
        <time>2020-05-23T15:01:14Z</time>
      </trkpt>
      <trkpt lat="48.77418" lon="-0.21193">
        <ele>245</ele>
        <time>2020-05-23T15:01:32Z</time>
      </trkpt>
      <trkpt lat="48.77463" lon="-0.21049">
        <ele>243</ele>
        <time>2020-05-23T15:01:57Z</time>
      </trkpt>
      <trkpt lat="48.77482" lon="-0.20993">
        <ele>242</ele>
        <time>2020-05-23T15:02:07Z</time>
      </trkpt>
      <trkpt lat="48.77514" lon="-0.2073">
        <ele>238</ele>
        <time>2020-05-23T15:02:48Z</time>
      </trkpt>
      <trkpt lat="48.77514" lon="-0.20691">
        <ele>237</ele>
        <time>2020-05-23T15:02:54Z</time>
      </trkpt>
      <trkpt lat="48.77467" lon="-0.20347">
        <ele>231</ele>
        <time>2020-05-23T15:03:48Z</time>
      </trkpt>
      <trkpt lat="48.77482" lon="-0.20282">
        <ele>228</ele>
        <time>2020-05-23T15:03:59Z</time>
      </trkpt>
      <trkpt lat="48.77476" lon="-0.20247">
        <ele>228</ele>
        <time>2020-05-23T15:04:04Z</time>
      </trkpt>
      <trkpt lat="48.77457" lon="-0.20208">
        <ele>229</ele>
        <time>2020-05-23T15:04:12Z</time>
      </trkpt>
      <trkpt lat="48.7748" lon="-0.20105">
        <ele>227</ele>
        <time>2020-05-23T15:04:28Z</time>
      </trkpt>
      <trkpt lat="48.77466" lon="-0.20062">
        <ele>228</ele>
        <time>2020-05-23T15:04:36Z</time>
      </trkpt>
      <trkpt lat="48.77436" lon="-0.20038">
        <ele>230</ele>
        <time>2020-05-23T15:04:44Z</time>
      </trkpt>
      <trkpt lat="48.7743" lon="-0.20013">
        <ele>230</ele>
        <time>2020-05-23T15:04:48Z</time>
      </trkpt>
      <trkpt lat="48.77428" lon="-0.19979">
        <ele>229</ele>
        <time>2020-05-23T15:04:53Z</time>
      </trkpt>
      <trkpt lat="48.77372" lon="-0.19971">
        <ele>231</ele>
        <time>2020-05-23T15:05:06Z</time>
      </trkpt>
      <trkpt lat="48.77389" lon="-0.19857">
        <ele>229</ele>
        <time>2020-05-23T15:05:24Z</time>
      </trkpt>
      <trkpt lat="48.7726" lon="-0.19811">
        <ele>234</ele>
        <time>2020-05-23T15:05:55Z</time>
      </trkpt>
      <trkpt lat="48.77192" lon="-0.19747">
        <ele>237</ele>
        <time>2020-05-23T15:06:14Z</time>
      </trkpt>
      <trkpt lat="48.76994" lon="-0.19602">
        <ele>235</ele>
        <time>2020-05-23T15:07:05Z</time>
      </trkpt>
      <trkpt lat="48.7695" lon="-0.19576">
        <ele>231</ele>
        <time>2020-05-23T15:07:16Z</time>
      </trkpt>
      <trkpt lat="48.76902" lon="-0.19598">
        <ele>228</ele>
        <time>2020-05-23T15:07:28Z</time>
      </trkpt>
      <trkpt lat="48.76844" lon="-0.19624">
        <ele>224</ele>
        <time>2020-05-23T15:07:42Z</time>
      </trkpt>
      <trkpt lat="48.76777" lon="-0.19626">
        <ele>224</ele>
        <time>2020-05-23T15:07:58Z</time>
      </trkpt>
      <trkpt lat="48.76662" lon="-0.19703">
        <ele>224</ele>
        <time>2020-05-23T15:08:27Z</time>
      </trkpt>
      <trkpt lat="48.76586" lon="-0.1973">
        <ele>228</ele>
        <time>2020-05-23T15:08:45Z</time>
      </trkpt>
      <trkpt lat="48.76478" lon="-0.19747">
        <ele>233</ele>
        <time>2020-05-23T15:09:11Z</time>
      </trkpt>
      <trkpt lat="48.76447" lon="-0.19738">
        <ele>233</ele>
        <time>2020-05-23T15:09:18Z</time>
      </trkpt>
      <trkpt lat="48.7642" lon="-0.19752">
        <ele>234</ele>
        <time>2020-05-23T15:09:25Z</time>
      </trkpt>
      <trkpt lat="48.76393" lon="-0.19791">
        <ele>230</ele>
        <time>2020-05-23T15:09:33Z</time>
      </trkpt>
      <trkpt lat="48.76326" lon="-0.19852">
        <ele>226</ele>
        <time>2020-05-23T15:09:51Z</time>
      </trkpt>
      <trkpt lat="48.76244" lon="-0.19887">
        <ele>221</ele>
        <time>2020-05-23T15:10:11Z</time>
      </trkpt>
      <trkpt lat="48.76186" lon="-0.19926">
        <ele>218</ele>
        <time>2020-05-23T15:10:26Z</time>
      </trkpt>
      <trkpt lat="48.76144" lon="-0.19984">
        <ele>217</ele>
        <time>2020-05-23T15:10:39Z</time>
      </trkpt>
      <trkpt lat="48.76044" lon="-0.19804">
        <ele>211</ele>
        <time>2020-05-23T15:11:16Z</time>
      </trkpt>
      <trkpt lat="48.75976" lon="-0.19628">
        <ele>201</ele>
        <time>2020-05-23T15:11:47Z</time>
      </trkpt>
      <trkpt lat="48.75948" lon="-0.19576">
        <ele>198</ele>
        <time>2020-05-23T15:11:57Z</time>
      </trkpt>
      <trkpt lat="48.75908" lon="-0.19584">
        <ele>195</ele>
        <time>2020-05-23T15:12:07Z</time>
      </trkpt>
      <trkpt lat="48.75833" lon="-0.19616">
        <ele>189</ele>
        <time>2020-05-23T15:12:25Z</time>
      </trkpt>
      <trkpt lat="48.75786" lon="-0.19666">
        <ele>189</ele>
        <time>2020-05-23T15:12:38Z</time>
      </trkpt>
      <trkpt lat="48.75769" lon="-0.19673">
        <ele>189</ele>
        <time>2020-05-23T15:12:43Z</time>
      </trkpt>
      <trkpt lat="48.75758" lon="-0.19614">
        <ele>186</ele>
        <time>2020-05-23T15:12:52Z</time>
      </trkpt>
      <trkpt lat="48.75768" lon="-0.19396">
        <ele>175</ele>
        <time>2020-05-23T15:13:26Z</time>
      </trkpt>
      <trkpt lat="48.7574" lon="-0.1934">
        <ele>172</ele>
        <time>2020-05-23T15:13:36Z</time>
      </trkpt>
      <trkpt lat="48.75679" lon="-0.1914">
        <ele>163</ele>
        <time>2020-05-23T15:14:10Z</time>
      </trkpt>
      <trkpt lat="48.75621" lon="-0.19023">
        <ele>157</ele>
        <time>2020-05-23T15:14:33Z</time>
      </trkpt>
      <trkpt lat="48.75558" lon="-0.18971">
        <ele>153</ele>
        <time>2020-05-23T15:14:50Z</time>
      </trkpt>
      <trkpt lat="48.7554" lon="-0.18936">
        <ele>152</ele>
        <time>2020-05-23T15:14:57Z</time>
      </trkpt>
      <trkpt lat="48.75512" lon="-0.18902">
        <ele>149</ele>
        <time>2020-05-23T15:15:05Z</time>
      </trkpt>
      <trkpt lat="48.75506" lon="-0.18871">
        <ele>149</ele>
        <time>2020-05-23T15:15:10Z</time>
      </trkpt>
      <trkpt lat="48.75507" lon="-0.18849">
        <ele>149</ele>
        <time>2020-05-23T15:15:13Z</time>
      </trkpt>
      <trkpt lat="48.7556" lon="-0.18793">
        <ele>160</ele>
        <time>2020-05-23T15:15:28Z</time>
      </trkpt>
      <trkpt lat="48.75613" lon="-0.18766">
        <ele>169</ele>
        <time>2020-05-23T15:15:41Z</time>
      </trkpt>
      <trkpt lat="48.75656" lon="-0.18735">
        <ele>176</ele>
        <time>2020-05-23T15:15:53Z</time>
      </trkpt>
      <trkpt lat="48.75666" lon="-0.1871">
        <ele>179</ele>
        <time>2020-05-23T15:15:57Z</time>
      </trkpt>
      <trkpt lat="48.7567" lon="-0.1866">
        <ele>183</ele>
        <time>2020-05-23T15:16:05Z</time>
      </trkpt>
      <trkpt lat="48.75705" lon="-0.18495">
        <ele>196</ele>
        <time>2020-05-23T15:16:31Z</time>
      </trkpt>
      <trkpt lat="48.75699" lon="-0.18365">
        <ele>196</ele>
        <time>2020-05-23T15:16:52Z</time>
      </trkpt>
      <trkpt lat="48.75685" lon="-0.18281">
        <ele>195</ele>
        <time>2020-05-23T15:17:05Z</time>
      </trkpt>
      <trkpt lat="48.75692" lon="-0.18216">
        <ele>196</ele>
        <time>2020-05-23T15:17:15Z</time>
      </trkpt>
      <trkpt lat="48.75712" lon="-0.18166">
        <ele>198</ele>
        <time>2020-05-23T15:17:24Z</time>
      </trkpt>
      <trkpt lat="48.7565" lon="-0.17922">
        <ele>195</ele>
        <time>2020-05-23T15:18:04Z</time>
      </trkpt>
      <trkpt lat="48.75612" lon="-0.17828">
        <ele>196</ele>
        <time>2020-05-23T15:18:21Z</time>
      </trkpt>
      <trkpt lat="48.75587" lon="-0.17745">
        <ele>199</ele>
        <time>2020-05-23T15:18:35Z</time>
      </trkpt>
      <trkpt lat="48.75572" lon="-0.1767">
        <ele>202</ele>
        <time>2020-05-23T15:18:47Z</time>
      </trkpt>
      <trkpt lat="48.75451" lon="-0.17639">
        <ele>199</ele>
        <time>2020-05-23T15:19:16Z</time>
      </trkpt>
      <trkpt lat="48.75407" lon="-0.17653">
        <ele>198</ele>
        <time>2020-05-23T15:19:27Z</time>
      </trkpt>
      <trkpt lat="48.75328" lon="-0.17711">
        <ele>193</ele>
        <time>2020-05-23T15:19:47Z</time>
      </trkpt>
      <trkpt lat="48.75311" lon="-0.17718">
        <ele>192</ele>
        <time>2020-05-23T15:19:51Z</time>
      </trkpt>
      <trkpt lat="48.75258" lon="-0.178">
        <ele>189</ele>
        <time>2020-05-23T15:20:09Z</time>
      </trkpt>
      <trkpt lat="48.75138" lon="-0.179">
        <ele>184</ele>
        <time>2020-05-23T15:20:41Z</time>
      </trkpt>
      <trkpt lat="48.7509" lon="-0.17941">
        <ele>178</ele>
        <time>2020-05-23T15:20:54Z</time>
      </trkpt>
      <trkpt lat="48.75051" lon="-0.17985">
        <ele>175</ele>
        <time>2020-05-23T15:21:05Z</time>
      </trkpt>
      <trkpt lat="48.75011" lon="-0.18032">
        <ele>170</ele>
        <time>2020-05-23T15:21:17Z</time>
      </trkpt>
      <trkpt lat="48.74957" lon="-0.18043">
        <ele>171</ele>
        <time>2020-05-23T15:21:30Z</time>
      </trkpt>
      <trkpt lat="48.74831" lon="-0.18123">
        <ele>170</ele>
        <time>2020-05-23T15:22:01Z</time>
      </trkpt>
      <trkpt lat="48.74795" lon="-0.1814">
        <ele>169</ele>
        <time>2020-05-23T15:22:10Z</time>
      </trkpt>
      <trkpt lat="48.74771" lon="-0.1814">
        <ele>170</ele>
        <time>2020-05-23T15:22:16Z</time>
      </trkpt>
      <trkpt lat="48.74739" lon="-0.18119">
        <ele>168</ele>
        <time>2020-05-23T15:22:24Z</time>
      </trkpt>
      <trkpt lat="48.74706" lon="-0.18069">
        <ele>161</ele>
        <time>2020-05-23T15:22:35Z</time>
      </trkpt>
      <trkpt lat="48.74672" lon="-0.18183">
        <ele>161</ele>
        <time>2020-05-23T15:22:54Z</time>
      </trkpt>
      <trkpt lat="48.74657" lon="-0.18286">
        <ele>160</ele>
        <time>2020-05-23T15:23:10Z</time>
      </trkpt>
      <trkpt lat="48.74648" lon="-0.18336">
        <ele>158</ele>
        <time>2020-05-23T15:23:18Z</time>
      </trkpt>
      <trkpt lat="48.74615" lon="-0.18441">
        <ele>150</ele>
        <time>2020-05-23T15:23:36Z</time>
      </trkpt>
      <trkpt lat="48.74608" lon="-0.18482">
        <ele>149</ele>
        <time>2020-05-23T15:23:43Z</time>
      </trkpt>
      <trkpt lat="48.74606" lon="-0.18532">
        <ele>150</ele>
        <time>2020-05-23T15:23:51Z</time>
      </trkpt>
      <trkpt lat="48.74621" lon="-0.18583">
        <ele>150</ele>
        <time>2020-05-23T15:23:59Z</time>
      </trkpt>
      <trkpt lat="48.74623" lon="-0.18645">
        <ele>151</ele>
        <time>2020-05-23T15:24:09Z</time>
      </trkpt>
      <trkpt lat="48.74604" lon="-0.18744">
        <ele>151</ele>
        <time>2020-05-23T15:24:25Z</time>
      </trkpt>
      <trkpt lat="48.74532" lon="-0.18915">
        <ele>147</ele>
        <time>2020-05-23T15:24:56Z</time>
      </trkpt>
      <trkpt lat="48.74452" lon="-0.19042">
        <ele>151</ele>
        <time>2020-05-23T15:25:23Z</time>
      </trkpt>
      <trkpt lat="48.74373" lon="-0.19122">
        <ele>152</ele>
        <time>2020-05-23T15:25:45Z</time>
      </trkpt>
      <trkpt lat="48.74297" lon="-0.19156">
        <ele>156</ele>
        <time>2020-05-23T15:26:04Z</time>
      </trkpt>
      <trkpt lat="48.74361" lon="-0.19062">
        <ele>160</ele>
        <time>2020-05-23T15:26:24Z</time>
      </trkpt>
      <trkpt lat="48.7438" lon="-0.19007">
        <ele>164</ele>
        <time>2020-05-23T15:26:34Z</time>
      </trkpt>
      <trkpt lat="48.7439" lon="-0.18969">
        <ele>166</ele>
        <time>2020-05-23T15:26:40Z</time>
      </trkpt>
      <trkpt lat="48.74423" lon="-0.18948">
        <ele>164</ele>
        <time>2020-05-23T15:26:49Z</time>
      </trkpt>
      <trkpt lat="48.74479" lon="-0.18867">
        <ele>162</ele>
        <time>2020-05-23T15:27:07Z</time>
      </trkpt>
      <trkpt lat="48.74494" lon="-0.18837">
        <ele>165</ele>
        <time>2020-05-23T15:27:12Z</time>
      </trkpt>
      <trkpt lat="48.74499" lon="-0.18815">
        <ele>165</ele>
        <time>2020-05-23T15:27:16Z</time>
      </trkpt>
      <trkpt lat="48.74496" lon="-0.18788">
        <ele>164</ele>
        <time>2020-05-23T15:27:20Z</time>
      </trkpt>
      <trkpt lat="48.74481" lon="-0.18779">
        <ele>164</ele>
        <time>2020-05-23T15:27:24Z</time>
      </trkpt>
      <trkpt lat="48.74467" lon="-0.18796">
        <ele>164</ele>
        <time>2020-05-23T15:27:28Z</time>
      </trkpt>
      <trkpt lat="48.74458" lon="-0.18819">
        <ele>166</ele>
        <time>2020-05-23T15:27:32Z</time>
      </trkpt>
      <trkpt lat="48.74472" lon="-0.18858">
        <ele>164</ele>
        <time>2020-05-23T15:27:39Z</time>
      </trkpt>
      <trkpt lat="48.74452" lon="-0.18903">
        <ele>162</ele>
        <time>2020-05-23T15:27:48Z</time>
      </trkpt>
      <trkpt lat="48.74408" lon="-0.18953">
        <ele>166</ele>
        <time>2020-05-23T15:28:00Z</time>
      </trkpt>
      <trkpt lat="48.74377" lon="-0.18988">
        <ele>166</ele>
        <time>2020-05-23T15:28:09Z</time>
      </trkpt>
      <trkpt lat="48.74351" lon="-0.19069">
        <ele>160</ele>
        <time>2020-05-23T15:28:23Z</time>
      </trkpt>
      <trkpt lat="48.7429" lon="-0.19161">
        <ele>157</ele>
        <time>2020-05-23T15:28:43Z</time>
      </trkpt>
      <trkpt lat="48.7437" lon="-0.19135">
        <ele>151</ele>
        <time>2020-05-23T15:29:02Z</time>
      </trkpt>
      <trkpt lat="48.74449" lon="-0.19055">
        <ele>150</ele>
        <time>2020-05-23T15:29:25Z</time>
      </trkpt>
      <trkpt lat="48.7453" lon="-0.18932">
        <ele>147</ele>
        <time>2020-05-23T15:29:51Z</time>
      </trkpt>
      <trkpt lat="48.74606" lon="-0.18762">
        <ele>150</ele>
        <time>2020-05-23T15:30:23Z</time>
      </trkpt>
      <trkpt lat="48.74625" lon="-0.18667">
        <ele>151</ele>
        <time>2020-05-23T15:30:38Z</time>
      </trkpt>
      <trkpt lat="48.74638" lon="-0.18636">
        <ele>148</ele>
        <time>2020-05-23T15:30:44Z</time>
      </trkpt>
      <trkpt lat="48.74653" lon="-0.18588">
        <ele>146</ele>
        <time>2020-05-23T15:30:52Z</time>
      </trkpt>
      <trkpt lat="48.74685" lon="-0.18527">
        <ele>146</ele>
        <time>2020-05-23T15:31:04Z</time>
      </trkpt>
      <trkpt lat="48.74729" lon="-0.18471">
        <ele>145</ele>
        <time>2020-05-23T15:31:18Z</time>
      </trkpt>
      <trkpt lat="48.74764" lon="-0.18483">
        <ele>142</ele>
        <time>2020-05-23T15:31:26Z</time>
      </trkpt>
      <trkpt lat="48.74853" lon="-0.18532">
        <ele>145</ele>
        <time>2020-05-23T15:31:48Z</time>
      </trkpt>
      <trkpt lat="48.7488" lon="-0.18562">
        <ele>148</ele>
        <time>2020-05-23T15:31:56Z</time>
      </trkpt>
      <trkpt lat="48.74902" lon="-0.18618">
        <ele>152</ele>
        <time>2020-05-23T15:32:06Z</time>
      </trkpt>
      <trkpt lat="48.74914" lon="-0.18674">
        <ele>154</ele>
        <time>2020-05-23T15:32:15Z</time>
      </trkpt>
      <trkpt lat="48.74826" lon="-0.18819">
        <ele>158</ele>
        <time>2020-05-23T15:32:45Z</time>
      </trkpt>
      <trkpt lat="48.7476" lon="-0.19063">
        <ele>162</ele>
        <time>2020-05-23T15:33:26Z</time>
      </trkpt>
      <trkpt lat="48.74722" lon="-0.19257">
        <ele>168</ele>
        <time>2020-05-23T15:33:57Z</time>
      </trkpt>
      <trkpt lat="48.74644" lon="-0.19442">
        <ele>170</ele>
        <time>2020-05-23T15:34:31Z</time>
      </trkpt>
      <trkpt lat="48.74467" lon="-0.19667">
        <ele>180</ele>
        <time>2020-05-23T15:35:25Z</time>
      </trkpt>
      <trkpt lat="48.74447" lon="-0.19691">
        <ele>180</ele>
        <time>2020-05-23T15:35:31Z</time>
      </trkpt>
      <trkpt lat="48.74269" lon="-0.19743">
        <ele>177</ele>
        <time>2020-05-23T15:36:13Z</time>
      </trkpt>
      <trkpt lat="48.74123" lon="-0.19757">
        <ele>178</ele>
        <time>2020-05-23T15:36:47Z</time>
      </trkpt>
      <trkpt lat="48.74072" lon="-0.19747">
        <ele>180</ele>
        <time>2020-05-23T15:36:59Z</time>
      </trkpt>
      <trkpt lat="48.74019" lon="-0.19715">
        <ele>179</ele>
        <time>2020-05-23T15:37:13Z</time>
      </trkpt>
      <trkpt lat="48.73914" lon="-0.19693">
        <ele>181</ele>
        <time>2020-05-23T15:37:37Z</time>
      </trkpt>
      <trkpt lat="48.73866" lon="-0.19718">
        <ele>189</ele>
        <time>2020-05-23T15:37:49Z</time>
      </trkpt>
      <trkpt lat="48.73757" lon="-0.1963">
        <ele>186</ele>
        <time>2020-05-23T15:38:18Z</time>
      </trkpt>
      <trkpt lat="48.73734" lon="-0.19631">
        <ele>188</ele>
        <time>2020-05-23T15:38:23Z</time>
      </trkpt>
      <trkpt lat="48.73717" lon="-0.19658">
        <ele>193</ele>
        <time>2020-05-23T15:38:29Z</time>
      </trkpt>
      <trkpt lat="48.73702" lon="-0.19725">
        <ele>199</ele>
        <time>2020-05-23T15:38:40Z</time>
      </trkpt>
      <trkpt lat="48.73695" lon="-0.19752">
        <ele>201</ele>
        <time>2020-05-23T15:38:45Z</time>
      </trkpt>
      <trkpt lat="48.7368" lon="-0.19766">
        <ele>202</ele>
        <time>2020-05-23T15:38:49Z</time>
      </trkpt>
      <trkpt lat="48.7369" lon="-0.1991">
        <ele>208</ele>
        <time>2020-05-23T15:39:11Z</time>
      </trkpt>
      <trkpt lat="48.73529" lon="-0.20037">
        <ele>217</ele>
        <time>2020-05-23T15:39:53Z</time>
      </trkpt>
      <trkpt lat="48.73477" lon="-0.20059">
        <ele>220</ele>
        <time>2020-05-23T15:40:06Z</time>
      </trkpt>
      <trkpt lat="48.73439" lon="-0.20129">
        <ele>223</ele>
        <time>2020-05-23T15:40:20Z</time>
      </trkpt>
      <trkpt lat="48.73411" lon="-0.2018">
        <ele>223</ele>
        <time>2020-05-23T15:40:30Z</time>
      </trkpt>
      <trkpt lat="48.73521" lon="-0.2024">
        <ele>212</ele>
        <time>2020-05-23T15:40:57Z</time>
      </trkpt>
      <trkpt lat="48.73583" lon="-0.20293">
        <ele>209</ele>
        <time>2020-05-23T15:41:14Z</time>
      </trkpt>
      <trkpt lat="48.73503" lon="-0.20395">
        <ele>210</ele>
        <time>2020-05-23T15:41:38Z</time>
      </trkpt>
      <trkpt lat="48.73485" lon="-0.20406">
        <ele>209</ele>
        <time>2020-05-23T15:41:43Z</time>
      </trkpt>
      <trkpt lat="48.73443" lon="-0.20452">
        <ele>210</ele>
        <time>2020-05-23T15:41:55Z</time>
      </trkpt>
      <trkpt lat="48.73428" lon="-0.20488">
        <ele>210</ele>
        <time>2020-05-23T15:42:02Z</time>
      </trkpt>
      <trkpt lat="48.73353" lon="-0.20919">
        <ele>211</ele>
        <time>2020-05-23T15:43:10Z</time>
      </trkpt>
      <trkpt lat="48.73346" lon="-0.20956">
        <ele>212</ele>
        <time>2020-05-23T15:43:16Z</time>
      </trkpt>
      <trkpt lat="48.73319" lon="-0.21054">
        <ele>211</ele>
        <time>2020-05-23T15:43:33Z</time>
      </trkpt>
      <trkpt lat="48.73305" lon="-0.21186">
        <ele>208</ele>
        <time>2020-05-23T15:43:53Z</time>
      </trkpt>
      <trkpt lat="48.733" lon="-0.21265">
        <ele>207</ele>
        <time>2020-05-23T15:44:05Z</time>
      </trkpt>
      <trkpt lat="48.73309" lon="-0.21331">
        <ele>205</ele>
        <time>2020-05-23T15:44:16Z</time>
      </trkpt>
      <trkpt lat="48.73314" lon="-0.21365">
        <ele>205</ele>
        <time>2020-05-23T15:44:21Z</time>
      </trkpt>
      <trkpt lat="48.73302" lon="-0.21466">
        <ele>202</ele>
        <time>2020-05-23T15:44:37Z</time>
      </trkpt>
      <trkpt lat="48.73311" lon="-0.2158">
        <ele>198</ele>
        <time>2020-05-23T15:44:55Z</time>
      </trkpt>
      <trkpt lat="48.73326" lon="-0.21685">
        <ele>195</ele>
        <time>2020-05-23T15:45:11Z</time>
      </trkpt>
      <trkpt lat="48.73462" lon="-0.21618">
        <ele>192</ele>
        <time>2020-05-23T15:45:45Z</time>
      </trkpt>
      <trkpt lat="48.73622" lon="-0.21493">
        <ele>191</ele>
        <time>2020-05-23T15:46:27Z</time>
      </trkpt>
      <trkpt lat="48.7367" lon="-0.21484">
        <ele>188</ele>
        <time>2020-05-23T15:46:38Z</time>
      </trkpt>
      <trkpt lat="48.73704" lon="-0.21456">
        <ele>188</ele>
        <time>2020-05-23T15:46:47Z</time>
      </trkpt>
      <trkpt lat="48.73895" lon="-0.2127">
        <ele>169</ele>
        <time>2020-05-23T15:47:40Z</time>
      </trkpt>
      <trkpt lat="48.73844" lon="-0.21455">
        <ele>176</ele>
        <time>2020-05-23T15:48:11Z</time>
      </trkpt>
      <trkpt lat="48.73812" lon="-0.21504">
        <ele>182</ele>
        <time>2020-05-23T15:48:22Z</time>
      </trkpt>
      <trkpt lat="48.73719" lon="-0.21623">
        <ele>187</ele>
        <time>2020-05-23T15:48:50Z</time>
      </trkpt>
      <trkpt lat="48.73704" lon="-0.21653">
        <ele>189</ele>
        <time>2020-05-23T15:48:56Z</time>
      </trkpt>
      <trkpt lat="48.73708" lon="-0.21724">
        <ele>193</ele>
        <time>2020-05-23T15:49:07Z</time>
      </trkpt>
      <trkpt lat="48.73739" lon="-0.21893">
        <ele>198</ele>
        <time>2020-05-23T15:49:34Z</time>
      </trkpt>
      <trkpt lat="48.73774" lon="-0.22064">
        <ele>199</ele>
        <time>2020-05-23T15:50:01Z</time>
      </trkpt>
      <trkpt lat="48.73845" lon="-0.22201">
        <ele>199</ele>
        <time>2020-05-23T15:50:28Z</time>
      </trkpt>
      <trkpt lat="48.73852" lon="-0.22227">
        <ele>200</ele>
        <time>2020-05-23T15:50:32Z</time>
      </trkpt>
      <trkpt lat="48.73836" lon="-0.22269">
        <ele>200</ele>
        <time>2020-05-23T15:50:40Z</time>
      </trkpt>
      <trkpt lat="48.73813" lon="-0.22311">
        <ele>200</ele>
        <time>2020-05-23T15:50:48Z</time>
      </trkpt>
      <trkpt lat="48.73789" lon="-0.22332">
        <ele>201</ele>
        <time>2020-05-23T15:50:55Z</time>
      </trkpt>
      <trkpt lat="48.73579" lon="-0.22576">
        <ele>210</ele>
        <time>2020-05-23T15:51:57Z</time>
      </trkpt>
      <trkpt lat="48.7345" lon="-0.22714">
        <ele>213</ele>
        <time>2020-05-23T15:52:33Z</time>
      </trkpt>
      <trkpt lat="48.73452" lon="-0.22869">
        <ele>214</ele>
        <time>2020-05-23T15:52:57Z</time>
      </trkpt>
      <trkpt lat="48.73496" lon="-0.2289">
        <ele>215</ele>
        <time>2020-05-23T15:53:08Z</time>
      </trkpt>
      <trkpt lat="48.73747" lon="-0.23206">
        <ele>214</ele>
        <time>2020-05-23T15:54:24Z</time>
      </trkpt>
      <trkpt lat="48.73767" lon="-0.23324">
        <ele>217</ele>
        <time>2020-05-23T15:54:43Z</time>
      </trkpt>
      <trkpt lat="48.73805" lon="-0.23411">
        <ele>215</ele>
        <time>2020-05-23T15:54:59Z</time>
      </trkpt>
      <trkpt lat="48.73856" lon="-0.23543">
        <ele>213</ele>
        <time>2020-05-23T15:55:23Z</time>
      </trkpt>
      <trkpt lat="48.73925" lon="-0.23711">
        <ele>214</ele>
        <time>2020-05-23T15:55:53Z</time>
      </trkpt>
      <trkpt lat="48.73941" lon="-0.23764">
        <ele>214</ele>
        <time>2020-05-23T15:56:02Z</time>
      </trkpt>
      <trkpt lat="48.73936" lon="-0.23829">
        <ele>213</ele>
        <time>2020-05-23T15:56:12Z</time>
      </trkpt>
      <trkpt lat="48.73919" lon="-0.23915">
        <ele>212</ele>
        <time>2020-05-23T15:56:26Z</time>
      </trkpt>
      <trkpt lat="48.73917" lon="-0.23974">
        <ele>210</ele>
        <time>2020-05-23T15:56:35Z</time>
      </trkpt>
      <trkpt lat="48.73926" lon="-0.24024">
        <ele>208</ele>
        <time>2020-05-23T15:56:43Z</time>
      </trkpt>
      <trkpt lat="48.73954" lon="-0.2405">
        <ele>206</ele>
        <time>2020-05-23T15:56:51Z</time>
      </trkpt>
      <trkpt lat="48.7404" lon="-0.24082">
        <ele>202</ele>
        <time>2020-05-23T15:57:11Z</time>
      </trkpt>
      <trkpt lat="48.741" lon="-0.24087">
        <ele>198</ele>
        <time>2020-05-23T15:57:26Z</time>
      </trkpt>
      <trkpt lat="48.74095" lon="-0.24124">
        <ele>192</ele>
        <time>2020-05-23T15:57:31Z</time>
      </trkpt>
      <trkpt lat="48.74055" lon="-0.24163">
        <ele>191</ele>
        <time>2020-05-23T15:57:42Z</time>
      </trkpt>
      <trkpt lat="48.74007" lon="-0.24178">
        <ele>194</ele>
        <time>2020-05-23T15:57:54Z</time>
      </trkpt>
      <trkpt lat="48.73828" lon="-0.24159">
        <ele>199</ele>
        <time>2020-05-23T15:58:36Z</time>
      </trkpt>
      <trkpt lat="48.73719" lon="-0.24135">
        <ele>202</ele>
        <time>2020-05-23T15:59:02Z</time>
      </trkpt>
      <trkpt lat="48.73686" lon="-0.24144">
        <ele>201</ele>
        <time>2020-05-23T15:59:09Z</time>
      </trkpt>
      <trkpt lat="48.73672" lon="-0.24157">
        <ele>199</ele>
        <time>2020-05-23T15:59:13Z</time>
      </trkpt>
      <trkpt lat="48.7363" lon="-0.24151">
        <ele>200</ele>
        <time>2020-05-23T15:59:23Z</time>
      </trkpt>
      <trkpt lat="48.73455" lon="-0.24066">
        <ele>201</ele>
        <time>2020-05-23T16:00:06Z</time>
      </trkpt>
      <trkpt lat="48.73447" lon="-0.24112">
        <ele>198</ele>
        <time>2020-05-23T16:00:13Z</time>
      </trkpt>
      <trkpt lat="48.73451" lon="-0.24144">
        <ele>195</ele>
        <time>2020-05-23T16:00:18Z</time>
      </trkpt>
      <trkpt lat="48.7347" lon="-0.24176">
        <ele>194</ele>
        <time>2020-05-23T16:00:25Z</time>
      </trkpt>
      <trkpt lat="48.73263" lon="-0.24212">
        <ele>186</ele>
        <time>2020-05-23T16:01:14Z</time>
      </trkpt>
      <trkpt lat="48.73202" lon="-0.24259">
        <ele>184</ele>
        <time>2020-05-23T16:01:30Z</time>
      </trkpt>
      <trkpt lat="48.73131" lon="-0.24377">
        <ele>185</ele>
        <time>2020-05-23T16:01:54Z</time>
      </trkpt>
      <trkpt lat="48.73111" lon="-0.24485">
        <ele>185</ele>
        <time>2020-05-23T16:02:11Z</time>
      </trkpt>
      <trkpt lat="48.73102" lon="-0.24606">
        <ele>187</ele>
        <time>2020-05-23T16:02:30Z</time>
      </trkpt>
      <trkpt lat="48.73089" lon="-0.24683">
        <ele>190</ele>
        <time>2020-05-23T16:02:42Z</time>
      </trkpt>
      <trkpt lat="48.73085" lon="-0.24765">
        <ele>193</ele>
        <time>2020-05-23T16:02:55Z</time>
      </trkpt>
      <trkpt lat="48.73097" lon="-0.24873">
        <ele>198</ele>
        <time>2020-05-23T16:03:12Z</time>
      </trkpt>
      <trkpt lat="48.73081" lon="-0.25156">
        <ele>206</ele>
        <time>2020-05-23T16:03:56Z</time>
      </trkpt>
      <trkpt lat="48.7307" lon="-0.25187">
        <ele>206</ele>
        <time>2020-05-23T16:04:01Z</time>
      </trkpt>
      <trkpt lat="48.7302" lon="-0.25223">
        <ele>205</ele>
        <time>2020-05-23T16:04:14Z</time>
      </trkpt>
      <trkpt lat="48.72955" lon="-0.25284">
        <ele>205</ele>
        <time>2020-05-23T16:04:32Z</time>
      </trkpt>
      <trkpt lat="48.73109" lon="-0.25657">
        <ele>213</ele>
        <time>2020-05-23T16:05:40Z</time>
      </trkpt>
      <trkpt lat="48.73276" lon="-0.25544">
        <ele>201</ele>
        <time>2020-05-23T16:06:22Z</time>
      </trkpt>
      <trkpt lat="48.73302" lon="-0.25532">
        <ele>199</ele>
        <time>2020-05-23T16:06:29Z</time>
      </trkpt>
      <trkpt lat="48.73344" lon="-0.25545">
        <ele>197</ele>
        <time>2020-05-23T16:06:39Z</time>
      </trkpt>
      <trkpt lat="48.73406" lon="-0.25587">
        <ele>193</ele>
        <time>2020-05-23T16:06:55Z</time>
      </trkpt>
      <trkpt lat="48.73497" lon="-0.2558">
        <ele>188</ele>
        <time>2020-05-23T16:07:16Z</time>
      </trkpt>
      <trkpt lat="48.73585" lon="-0.25498">
        <ele>185</ele>
        <time>2020-05-23T16:07:40Z</time>
      </trkpt>
      <trkpt lat="48.73638" lon="-0.25496">
        <ele>186</ele>
        <time>2020-05-23T16:07:52Z</time>
      </trkpt>
      <trkpt lat="48.73696" lon="-0.25545">
        <ele>193</ele>
        <time>2020-05-23T16:08:08Z</time>
      </trkpt>
      <trkpt lat="48.7373" lon="-0.25531">
        <ele>196</ele>
        <time>2020-05-23T16:08:16Z</time>
      </trkpt>
      <trkpt lat="48.73878" lon="-0.25503">
        <ele>208</ele>
        <time>2020-05-23T16:08:51Z</time>
      </trkpt>
      <trkpt lat="48.74062" lon="-0.25463">
        <ele>221</ele>
        <time>2020-05-23T16:09:34Z</time>
      </trkpt>
      <trkpt lat="48.74128" lon="-0.25441">
        <ele>221</ele>
        <time>2020-05-23T16:09:50Z</time>
      </trkpt>
      <trkpt lat="48.74159" lon="-0.25445">
        <ele>220</ele>
        <time>2020-05-23T16:09:57Z</time>
      </trkpt>
      <trkpt lat="48.74269" lon="-0.25411">
        <ele>217</ele>
        <time>2020-05-23T16:10:24Z</time>
      </trkpt>
      <trkpt lat="48.74325" lon="-0.25385">
        <ele>212</ele>
        <time>2020-05-23T16:10:37Z</time>
      </trkpt>
      <trkpt lat="48.74374" lon="-0.25327">
        <ele>208</ele>
        <time>2020-05-23T16:10:52Z</time>
      </trkpt>
      <trkpt lat="48.74415" lon="-0.25295">
        <ele>204</ele>
        <time>2020-05-23T16:11:03Z</time>
      </trkpt>
      <trkpt lat="48.74486" lon="-0.25289">
        <ele>202</ele>
        <time>2020-05-23T16:11:19Z</time>
      </trkpt>
      <trkpt lat="48.74504" lon="-0.25271">
        <ele>200</ele>
        <time>2020-05-23T16:11:24Z</time>
      </trkpt>
      <trkpt lat="48.74548" lon="-0.25203">
        <ele>201</ele>
        <time>2020-05-23T16:11:39Z</time>
      </trkpt>
      <trkpt lat="48.74578" lon="-0.25169">
        <ele>203</ele>
        <time>2020-05-23T16:11:48Z</time>
      </trkpt>
      <trkpt lat="48.74603" lon="-0.25162">
        <ele>204</ele>
        <time>2020-05-23T16:11:54Z</time>
      </trkpt>
      <trkpt lat="48.74627" lon="-0.25167">
        <ele>205</ele>
        <time>2020-05-23T16:11:59Z</time>
      </trkpt>
      <trkpt lat="48.74691" lon="-0.25202">
        <ele>208</ele>
        <time>2020-05-23T16:12:15Z</time>
      </trkpt>
      <trkpt lat="48.74724" lon="-0.25235">
        <ele>210</ele>
        <time>2020-05-23T16:12:24Z</time>
      </trkpt>
      <trkpt lat="48.74838" lon="-0.25197">
        <ele>212</ele>
        <time>2020-05-23T16:12:52Z</time>
      </trkpt>
      <trkpt lat="48.74966" lon="-0.25157">
        <ele>207</ele>
        <time>2020-05-23T16:13:22Z</time>
      </trkpt>
      <trkpt lat="48.75052" lon="-0.25119">
        <ele>203</ele>
        <time>2020-05-23T16:13:43Z</time>
      </trkpt>
      <trkpt lat="48.75068" lon="-0.25116">
        <ele>204</ele>
        <time>2020-05-23T16:13:47Z</time>
      </trkpt>
      <trkpt lat="48.75095" lon="-0.25144">
        <ele>204</ele>
        <time>2020-05-23T16:13:54Z</time>
      </trkpt>
      <trkpt lat="48.75152" lon="-0.2518">
        <ele>203</ele>
        <time>2020-05-23T16:14:09Z</time>
      </trkpt>
      <trkpt lat="48.75191" lon="-0.25146">
        <ele>202</ele>
        <time>2020-05-23T16:14:19Z</time>
      </trkpt>
      <trkpt lat="48.7532" lon="-0.25066">
        <ele>199</ele>
        <time>2020-05-23T16:14:52Z</time>
      </trkpt>
      <trkpt lat="48.75361" lon="-0.25032">
        <ele>199</ele>
        <time>2020-05-23T16:15:03Z</time>
      </trkpt>
      <trkpt lat="48.75412" lon="-0.24968">
        <ele>197</ele>
        <time>2020-05-23T16:15:18Z</time>
      </trkpt>
      <trkpt lat="48.75461" lon="-0.24892">
        <ele>193</ele>
        <time>2020-05-23T16:15:35Z</time>
      </trkpt>
      <trkpt lat="48.75511" lon="-0.2482">
        <ele>188</ele>
        <time>2020-05-23T16:15:51Z</time>
      </trkpt>
      <trkpt lat="48.75547" lon="-0.24788">
        <ele>184</ele>
        <time>2020-05-23T16:16:01Z</time>
      </trkpt>
      <trkpt lat="48.75589" lon="-0.24756">
        <ele>179</ele>
        <time>2020-05-23T16:16:12Z</time>
      </trkpt>
      <trkpt lat="48.75621" lon="-0.24751">
        <ele>174</ele>
        <time>2020-05-23T16:16:19Z</time>
      </trkpt>
      <trkpt lat="48.75667" lon="-0.24769">
        <ele>170</ele>
        <time>2020-05-23T16:16:30Z</time>
      </trkpt>
      <trkpt lat="48.7571" lon="-0.24776">
        <ele>163</ele>
        <time>2020-05-23T16:16:40Z</time>
      </trkpt>
      <trkpt lat="48.75773" lon="-0.24748">
        <ele>150</ele>
        <time>2020-05-23T16:16:56Z</time>
      </trkpt>
      <trkpt lat="48.75831" lon="-0.24774">
        <ele>145</ele>
        <time>2020-05-23T16:17:10Z</time>
      </trkpt>
      <trkpt lat="48.75856" lon="-0.24772">
        <ele>143</ele>
        <time>2020-05-23T16:17:16Z</time>
      </trkpt>
      <trkpt lat="48.75873" lon="-0.24785">
        <ele>143</ele>
        <time>2020-05-23T16:17:20Z</time>
      </trkpt>
      <trkpt lat="48.75888" lon="-0.2478">
        <ele>142</ele>
        <time>2020-05-23T16:17:24Z</time>
      </trkpt>
      <trkpt lat="48.76072" lon="-0.24795">
        <ele>139</ele>
        <time>2020-05-23T16:18:07Z</time>
      </trkpt>
      <trkpt lat="48.76126" lon="-0.2475">
        <ele>137</ele>
        <time>2020-05-23T16:18:21Z</time>
      </trkpt>
      <trkpt lat="48.76216" lon="-0.24634">
        <ele>134</ele>
        <time>2020-05-23T16:18:49Z</time>
      </trkpt>
      <trkpt lat="48.76224" lon="-0.24649">
        <ele>135</ele>
        <time>2020-05-23T16:18:52Z</time>
      </trkpt>
      <trkpt lat="48.76235" lon="-0.24721">
        <ele>138</ele>
        <time>2020-05-23T16:19:03Z</time>
      </trkpt>
      <trkpt lat="48.76233" lon="-0.24769">
        <ele>139</ele>
        <time>2020-05-23T16:19:10Z</time>
      </trkpt>
      <trkpt lat="48.76202" lon="-0.24866">
        <ele>140</ele>
        <time>2020-05-23T16:19:27Z</time>
      </trkpt>
      <trkpt lat="48.76321" lon="-0.24757">
        <ele>138</ele>
        <time>2020-05-23T16:19:59Z</time>
      </trkpt>
      <trkpt lat="48.76449" lon="-0.24681">
        <ele>131</ele>
        <time>2020-05-23T16:20:31Z</time>
      </trkpt>
      <trkpt lat="48.76389" lon="-0.2449">
        <ele>129</ele>
        <time>2020-05-23T16:21:04Z</time>
      </trkpt>
    </trkseg>
  </trk>
</gpx>